createdAt,value
2022-08-20T00:00:32.889Z,14.80
2022-08-20T00:01:07.033Z,14.55
2022-08-20T00:01:40.311Z,15.73
2022-08-20T00:02:12.533Z,15.27
2022-08-20T00:02:48.569Z,15.05
2022-08-20T00:03:23.357Z,13.40
2022-08-20T00:03:57.728Z,14.57
2022-08-20T00:04:34.549Z,16.05
2022-08-20T00:05:06.780Z,14.82
2022-08-20T00:05:42.244Z,15.07
2022-08-20T00:06:18.669Z,14.88
2022-08-20T00:06:50.526Z,15.57
2022-08-20T00:07:22.329Z,14.65
2022-08-20T00:07:55.466Z,16.00
2022-08-20T00:08:28.238Z,15.82
2022-08-20T00:09:00.325Z,15.90
2022-08-20T00:09:36.761Z,16.85
2022-08-20T00:10:09.678Z,16.23
2022-08-20T00:10:43.632Z,14.77
2022-08-20T00:11:22.923Z,15.57
2022-08-20T00:11:55.857Z,17.10
2022-08-20T00:12:27.708Z,14.93
2022-08-20T00:13:00.936Z,15.30
2022-08-20T00:13:38.444Z,14.57
2022-08-20T00:14:11.482Z,14.52
2022-08-20T00:14:43.390Z,18.23
2022-08-20T00:15:21.562Z,14.95
2022-08-20T00:15:54.751Z,16.95
2022-08-20T00:16:32.606Z,15.98
2022-08-20T00:17:06.329Z,15.48
2022-08-20T00:17:39.165Z,15.13
2022-08-20T00:18:12.379Z,15.70
2022-08-20T00:18:44.940Z,15.82
2022-08-20T00:19:18.239Z,14.95
2022-08-20T00:19:50.107Z,16.60
2022-08-20T00:20:24.980Z,16.17
2022-08-20T00:20:58.900Z,14.65
2022-08-20T00:21:31.416Z,15.90
2022-08-20T00:22:03.767Z,15.70
2022-08-20T00:22:36.566Z,15.38
2022-08-20T00:23:10.588Z,15.05
2022-08-20T00:23:46.018Z,15.48
2022-08-20T00:24:17.942Z,15.40
2022-08-20T00:24:49.802Z,15.90
2022-08-20T00:25:21.801Z,16.13
2022-08-20T00:25:54.961Z,15.43
2022-08-20T00:26:26.957Z,15.35
2022-08-20T00:26:58.886Z,16.25
2022-08-20T00:27:31.709Z,15.55
2022-08-20T00:28:04.086Z,15.02
2022-08-20T00:28:36.031Z,14.85
2022-08-20T00:29:08.883Z,14.90
2022-08-20T00:29:40.729Z,14.30
2022-08-20T00:30:14.582Z,14.82
2022-08-20T00:30:48.290Z,15.70
2022-08-20T00:31:23.525Z,15.82
2022-08-20T00:31:55.363Z,16.05
2022-08-20T00:32:29.505Z,16.52
2022-08-20T00:33:04.234Z,15.82
2022-08-20T00:33:37.065Z,15.43
2022-08-20T00:34:08.927Z,14.43
2022-08-20T00:34:42.220Z,14.95
2022-08-20T00:35:15.475Z,16.20
2022-08-20T00:35:49.490Z,15.88
2022-08-20T00:36:32.164Z,14.90
2022-08-20T00:37:05.052Z,15.95
2022-08-20T00:37:36.926Z,16.45
2022-08-20T00:38:09.964Z,15.18
2022-08-20T00:38:44.154Z,14.05
2022-08-20T00:39:16.011Z,13.48
2022-08-20T00:39:48.893Z,14.88
2022-08-20T00:40:23.882Z,16.90
2022-08-20T00:40:57.978Z,19.75
2022-08-20T00:41:31.117Z,14.73
2022-08-20T00:42:03.774Z,15.50
2022-08-20T00:42:42.220Z,15.30
2022-08-20T00:43:35.211Z,15.70
2022-08-20T00:44:11.273Z,15.50
2022-08-20T00:44:46.189Z,15.98
2022-08-20T00:45:20.518Z,18.35
2022-08-20T00:45:55.526Z,16.27
2022-08-20T00:46:32.098Z,16.67
2022-08-20T00:47:06.128Z,16.73
2022-08-20T00:47:41.043Z,16.30
2022-08-20T00:48:30.416Z,16.80
2022-08-20T00:49:07.814Z,17.30
2022-08-20T00:49:39.676Z,16.50
2022-08-20T00:50:12.753Z,17.08
2022-08-20T00:50:50.204Z,16.73
2022-08-20T00:51:29.932Z,16.55
2022-08-20T00:52:06.453Z,16.92
2022-08-20T00:52:41.954Z,16.90
2022-08-20T00:53:23.492Z,16.83
2022-08-20T00:53:57.642Z,17.65
2022-08-20T00:54:35.713Z,14.82
2022-08-20T00:55:09.129Z,18.33
2022-08-20T00:55:41.606Z,17.10
2022-08-20T00:56:14.022Z,19.58
2022-08-20T00:56:50.405Z,17.42
2022-08-20T00:57:26.336Z,17.88
2022-08-20T00:58:02.871Z,19.23
2022-08-20T00:58:38.135Z,19.02
2022-08-20T00:59:14.932Z,18.85
2022-08-20T00:59:48.866Z,18.58
2022-08-20T01:00:26.122Z,19.77
2022-08-20T01:00:58.172Z,19.27
2022-08-20T01:01:31.997Z,19.90
2022-08-20T01:02:08.552Z,19.65
2022-08-20T01:02:42.299Z,19.75
2022-08-20T01:03:19.081Z,20.27
2022-08-20T01:03:56.485Z,19.90
2022-08-20T01:04:31.628Z,17.48
2022-08-20T01:05:05.184Z,19.20
2022-08-20T01:05:38.651Z,18.23
2022-08-20T01:06:11.801Z,21.58
2022-08-20T01:06:44.809Z,20.02
2022-08-20T01:07:20.723Z,19.55
2022-08-20T01:07:53.729Z,19.80
2022-08-20T01:08:26.708Z,19.58
2022-08-20T01:09:02.018Z,19.30
2022-08-20T01:09:57.932Z,20.88
2022-08-20T01:10:35.886Z,19.65
2022-08-20T01:11:10.295Z,19.25
2022-08-20T01:11:42.356Z,18.70
2022-08-20T01:12:17.097Z,20.48
2022-08-20T01:12:55.602Z,20.58
2022-08-20T01:13:31.761Z,20.20
2022-08-20T01:14:22.624Z,19.20
2022-08-20T01:14:55.653Z,19.40
2022-08-20T01:15:30.926Z,19.70
2022-08-20T01:16:19.575Z,21.10
2022-08-20T01:16:55.334Z,19.75
2022-08-20T01:17:31.140Z,19.38
2022-08-20T01:18:06.045Z,21.23
2022-08-20T01:18:38.902Z,20.85
2022-08-20T01:19:29.538Z,20.95
2022-08-20T01:20:07.011Z,20.02
2022-08-20T01:20:42.328Z,20.00
2022-08-20T01:21:16.721Z,20.83
2022-08-20T01:21:49.908Z,19.85
2022-08-20T01:22:48.977Z,22.23
2022-08-20T01:23:30.023Z,21.75
2022-08-20T01:24:07.526Z,20.90
2022-08-20T01:24:42.948Z,20.15
2022-08-20T01:25:26.305Z,20.42
2022-08-20T01:26:05.865Z,21.15
2022-08-20T01:26:42.414Z,20.23
2022-08-20T01:27:14.526Z,21.15
2022-08-20T01:27:48.535Z,18.90
2022-08-20T01:28:34.916Z,20.13
2022-08-20T01:29:10.830Z,21.42
2022-08-20T01:29:43.056Z,19.60
2022-08-20T01:30:15.902Z,21.40
2022-08-20T01:30:48.153Z,19.48
2022-08-20T01:31:23.362Z,21.02
2022-08-20T01:32:01.158Z,20.70
2022-08-20T01:32:33.458Z,21.85
2022-08-20T01:33:06.881Z,20.90
2022-08-20T01:33:39.060Z,20.98
2022-08-20T01:34:14.038Z,22.20
2022-08-20T01:34:45.936Z,21.00
2022-08-20T01:35:20.558Z,20.75
2022-08-20T01:35:54.780Z,22.92
2022-08-20T01:36:30.217Z,24.05
2022-08-20T01:37:03.119Z,21.05
2022-08-20T01:37:34.967Z,22.48
2022-08-20T01:38:07.690Z,20.52
2022-08-20T01:38:50.240Z,20.88
2022-08-20T01:39:30.597Z,19.83
2022-08-20T01:40:03.525Z,23.27
2022-08-20T01:41:16.662Z,22.20
2022-08-20T01:41:58.780Z,20.70
2022-08-20T01:42:58.895Z,21.20
2022-08-20T01:43:32.268Z,21.50
2022-08-20T01:44:16.720Z,20.13
2022-08-20T01:44:50.011Z,22.25
2022-08-20T01:45:21.847Z,20.50
2022-08-20T01:46:01.200Z,20.90
2022-08-20T01:46:43.992Z,22.40
2022-08-20T01:47:19.809Z,21.58
2022-08-20T01:47:53.023Z,21.67
2022-08-20T01:48:25.160Z,20.52
2022-08-20T01:48:57.610Z,20.40
2022-08-20T01:49:34.736Z,21.90
2022-08-20T01:50:16.705Z,22.63
2022-08-20T01:51:08.003Z,21.80
2022-08-20T01:51:40.184Z,21.15
2022-08-20T01:52:17.762Z,20.67
2022-08-20T01:52:58.257Z,22.70
2022-08-20T01:53:33.820Z,23.35
2022-08-20T01:54:07.337Z,22.38
2022-08-20T01:54:40.282Z,22.92
2022-08-20T01:55:13.030Z,20.15
2022-08-20T01:55:46.127Z,22.30
2022-08-20T01:56:24.096Z,22.75
2022-08-20T01:56:59.790Z,21.73
2022-08-20T01:57:31.915Z,22.75
2022-08-20T01:58:03.906Z,23.67
2022-08-20T01:58:39.498Z,22.67
2022-08-20T01:59:12.080Z,20.10
2022-08-20T01:59:45.099Z,23.10
2022-08-20T02:00:21.944Z,21.88
2022-08-20T02:00:54.002Z,21.08
2022-08-20T02:01:30.195Z,22.08
2022-08-20T02:02:03.395Z,22.25
2022-08-20T02:02:35.279Z,21.90
2022-08-20T02:03:08.622Z,23.42
2022-08-20T02:03:44.661Z,22.67
2022-08-20T02:04:18.148Z,23.52
2022-08-20T02:04:50.201Z,24.08
2022-08-20T02:05:22.200Z,22.38
2022-08-20T02:05:55.000Z,21.92
2022-08-20T02:06:28.402Z,24.88
2022-08-20T02:07:04.155Z,21.85
2022-08-20T02:07:37.599Z,22.98
2022-08-20T02:08:09.518Z,23.10
2022-08-20T02:08:41.583Z,23.30
2022-08-20T02:09:16.219Z,23.08
2022-08-20T02:09:49.109Z,23.40
2022-08-20T02:10:21.550Z,21.02
2022-08-20T02:10:55.765Z,22.13
2022-08-20T02:11:30.521Z,22.73
2022-08-20T02:12:03.878Z,23.80
2022-08-20T02:12:37.293Z,20.77
2022-08-20T02:13:10.073Z,22.10
2022-08-20T02:13:41.931Z,21.63
2022-08-20T02:14:16.238Z,20.60
2022-08-20T02:14:53.111Z,25.33
2022-08-20T02:15:34.637Z,23.00
2022-08-20T02:16:10.133Z,22.70
2022-08-20T02:16:52.498Z,23.25
2022-08-20T02:17:27.462Z,23.15
2022-08-20T02:18:01.266Z,24.10
2022-08-20T02:18:33.173Z,21.58
2022-08-20T02:19:11.770Z,23.00
2022-08-20T02:19:47.373Z,24.60
2022-08-20T02:20:23.724Z,23.75
2022-08-20T02:20:55.606Z,23.83
2022-08-20T02:21:32.209Z,22.60
2022-08-20T02:22:16.535Z,22.65
2022-08-20T02:22:52.521Z,22.02
2022-08-20T02:23:25.338Z,22.27
2022-08-20T02:23:57.733Z,22.92
2022-08-20T02:24:30.002Z,23.77
2022-08-20T02:25:03.000Z,22.98
2022-08-20T02:25:36.985Z,26.38
2022-08-20T02:26:09.702Z,22.73
2022-08-20T02:26:44.766Z,24.42
2022-08-20T02:27:18.670Z,25.63
2022-08-20T02:27:51.879Z,22.30
2022-08-20T02:28:24.811Z,24.63
2022-08-20T02:28:57.425Z,24.58
2022-08-20T02:29:33.241Z,22.33
2022-08-20T02:30:10.918Z,23.52
2022-08-20T02:30:53.666Z,24.20
2022-08-20T02:31:27.900Z,23.60
2022-08-20T02:32:32.802Z,24.75
2022-08-20T02:32:56.330Z,23.67
2022-08-20T02:33:29.324Z,23.77
2022-08-20T02:34:21.847Z,24.63
2022-08-20T02:34:53.017Z,23.83
2022-08-20T02:35:26.545Z,24.60
2022-08-20T02:35:58.419Z,25.92
2022-08-20T02:36:30.262Z,26.95
2022-08-20T02:37:04.577Z,23.85
2022-08-20T02:37:37.436Z,24.13
2022-08-20T02:38:10.545Z,25.60
2022-08-20T02:38:43.858Z,26.60
2022-08-20T02:39:15.710Z,25.38
2022-08-20T02:39:47.597Z,26.10
2022-08-20T02:40:27.156Z,25.38
2022-08-20T02:41:02.905Z,24.58
2022-08-20T02:41:35.781Z,24.90
2022-08-20T02:42:09.318Z,25.85
2022-08-20T02:42:43.386Z,26.75
2022-08-20T02:43:20.032Z,25.58
2022-08-20T02:43:51.966Z,26.60
2022-08-20T02:44:23.948Z,27.65
2022-08-20T02:44:57.525Z,24.30
2022-08-20T02:45:31.254Z,27.20
2022-08-20T02:46:04.731Z,27.63
2022-08-20T02:46:37.599Z,24.85
2022-08-20T02:47:09.541Z,24.38
2022-08-20T02:47:41.613Z,27.80
2022-08-20T02:48:20.617Z,25.08
2022-08-20T02:48:52.461Z,24.85
2022-08-20T02:49:24.809Z,24.45
2022-08-20T02:49:59.554Z,23.90
2022-08-20T02:50:31.417Z,24.77
2022-08-20T02:51:06.658Z,25.15
2022-08-20T02:51:38.520Z,26.45
2022-08-20T02:52:10.424Z,25.33
2022-08-20T02:52:52.022Z,26.38
2022-08-20T02:53:24.474Z,26.67
2022-08-20T02:53:57.277Z,26.27
2022-08-20T02:54:29.255Z,24.17
2022-08-20T02:55:01.334Z,26.80
2022-08-20T02:55:34.180Z,27.17
2022-08-20T02:56:06.400Z,25.80
2022-08-20T02:56:39.704Z,26.15
2022-08-20T02:57:14.126Z,25.45
2022-08-20T02:57:45.989Z,25.77
2022-08-20T02:58:24.357Z,25.58
2022-08-20T02:58:56.208Z,24.70
2022-08-20T02:59:28.262Z,25.35
2022-08-20T03:00:01.981Z,26.10
2022-08-20T03:00:38.430Z,26.10
2022-08-20T03:01:13.327Z,26.65
2022-08-20T03:01:45.179Z,25.38
2022-08-20T03:02:17.994Z,24.77
2022-08-20T03:02:50.365Z,28.70
2022-08-20T03:03:22.641Z,27.60
2022-08-20T03:03:57.001Z,25.38
2022-08-20T03:04:29.011Z,25.95
2022-08-20T03:05:00.863Z,25.70
2022-08-20T03:05:33.849Z,25.08
2022-08-20T03:06:07.094Z,25.48
2022-08-20T03:06:39.902Z,25.40
2022-08-20T03:07:12.258Z,25.60
2022-08-20T03:07:44.798Z,26.42
2022-08-20T03:08:18.482Z,24.88
2022-08-20T03:08:50.559Z,27.30
2022-08-20T03:09:22.418Z,25.23
2022-08-20T03:09:55.236Z,25.90
2022-08-20T03:10:29.382Z,26.02
2022-08-20T03:11:01.409Z,25.63
2022-08-20T03:11:34.863Z,25.75
2022-08-20T03:12:08.578Z,26.30
2022-08-20T03:12:42.076Z,27.00
2022-08-20T03:13:16.306Z,25.95
2022-08-20T03:13:48.291Z,26.55
2022-08-20T03:14:20.122Z,24.70
2022-08-20T03:14:52.919Z,26.30
2022-08-20T03:15:24.753Z,25.15
2022-08-20T03:16:00.069Z,24.70
2022-08-20T03:16:33.497Z,24.80
2022-08-20T03:17:05.507Z,24.70
2022-08-20T03:17:37.501Z,25.63
2022-08-20T03:18:10.740Z,24.00
2022-08-20T03:18:45.507Z,25.55
2022-08-20T03:19:17.357Z,26.58
2022-08-20T03:19:50.202Z,26.00
2022-08-20T03:20:23.960Z,29.77
2022-08-20T03:20:56.480Z,27.73
2022-08-20T03:21:30.388Z,25.70
2022-08-20T03:22:02.251Z,27.40
2022-08-20T03:22:34.678Z,24.55
2022-08-20T03:23:07.691Z,26.75
2022-08-20T03:23:40.570Z,25.75
2022-08-20T03:24:13.450Z,28.30
2022-08-20T03:24:45.488Z,24.35
2022-08-20T03:25:17.534Z,27.67
2022-08-20T03:25:50.605Z,25.75
2022-08-20T03:26:22.578Z,27.55
2022-08-20T03:26:54.448Z,26.38
2022-08-20T03:27:27.723Z,27.42
2022-08-20T03:28:10.153Z,27.17
2022-08-20T03:28:42.576Z,23.45
2022-08-20T03:29:15.437Z,28.08
2022-08-20T03:29:47.322Z,25.40
2022-08-20T03:30:19.773Z,26.30
2022-08-20T03:30:53.257Z,26.30
2022-08-20T03:31:25.160Z,29.25
2022-08-20T03:31:57.746Z,25.17
2022-08-20T03:32:30.546Z,27.60
2022-08-20T03:33:02.890Z,26.00
2022-08-20T03:33:35.623Z,27.63
2022-08-20T03:34:08.428Z,25.90
2022-08-20T03:34:40.251Z,26.02
2022-08-20T03:35:14.477Z,27.50
2022-08-20T03:35:48.196Z,25.88
2022-08-20T03:36:26.658Z,28.67
2022-08-20T03:37:00.038Z,27.77
2022-08-20T03:37:33.289Z,26.33
2022-08-20T03:38:08.998Z,27.45
2022-08-20T03:38:40.891Z,27.00
2022-08-20T03:39:13.314Z,27.00
2022-08-20T03:39:46.625Z,26.60
2022-08-20T03:40:21.738Z,28.00
2022-08-20T03:40:53.691Z,28.00
2022-08-20T03:41:27.010Z,25.23
2022-08-20T03:41:58.898Z,27.98
2022-08-20T03:42:31.128Z,26.90
2022-08-20T03:43:03.722Z,27.05
2022-08-20T03:43:39.020Z,28.55
2022-08-20T03:44:10.850Z,29.02
2022-08-20T03:44:43.272Z,27.98
2022-08-20T03:45:19.906Z,27.92
2022-08-20T03:45:53.368Z,26.98
2022-08-20T03:46:25.749Z,27.02
2022-08-20T03:46:57.908Z,29.00
2022-08-20T03:47:30.917Z,26.52
2022-08-20T03:48:03.972Z,25.40
2022-08-20T03:48:36.825Z,28.65
2022-08-20T03:49:08.701Z,25.80
2022-08-20T03:49:40.623Z,27.90
2022-08-20T03:50:23.049Z,27.23
2022-08-20T03:51:00.669Z,27.60
2022-08-20T03:51:43.981Z,27.02
2022-08-20T03:52:27.077Z,26.67
2022-08-20T03:53:01.031Z,27.20
2022-08-20T03:53:32.968Z,28.02
2022-08-20T03:54:04.985Z,27.17
2022-08-20T03:54:37.780Z,26.98
2022-08-20T03:55:10.571Z,27.23
2022-08-20T03:55:45.362Z,26.23
2022-08-20T03:56:27.017Z,26.50
2022-08-20T03:56:59.541Z,28.33
2022-08-20T03:57:31.427Z,25.55
2022-08-20T03:58:06.220Z,29.10
2022-08-20T03:58:40.401Z,26.23
2022-08-20T03:59:12.230Z,28.63
2022-08-20T03:59:44.501Z,26.77
2022-08-20T04:00:20.679Z,28.30
2022-08-20T04:00:53.608Z,25.50
2022-08-20T04:01:37.174Z,29.00
2022-08-20T04:02:17.516Z,26.58
2022-08-20T04:02:50.341Z,27.40
2022-08-20T04:03:23.048Z,29.40
2022-08-20T04:03:55.372Z,27.67
2022-08-20T04:04:28.378Z,30.63
2022-08-20T04:05:00.227Z,31.23
2022-08-20T04:05:33.377Z,38.95
2022-08-20T04:06:07.021Z,28.67
2022-08-20T04:06:38.880Z,34.03
2022-08-20T04:07:14.802Z,37.88
2022-08-20T04:07:47.764Z,51.63
2022-08-20T04:08:22.658Z,45.15
2022-08-20T04:08:55.048Z,51.72
2022-08-20T04:09:28.830Z,64.93
2022-08-20T04:10:04.301Z,58.65
2022-08-20T04:10:37.085Z,66.53
2022-08-20T04:11:10.098Z,54.25
2022-08-20T04:11:42.665Z,56.00
2022-08-20T04:12:14.476Z,49.42
2022-08-20T04:12:52.715Z,57.58
2022-08-20T04:13:27.744Z,47.22
2022-08-20T04:14:00.899Z,45.50
2022-08-20T04:14:36.126Z,54.00
2022-08-20T04:15:11.009Z,67.38
2022-08-20T04:15:45.065Z,91.85
2022-08-20T04:16:16.926Z,151.48
2022-08-20T04:16:49.807Z,154.43
2022-08-20T04:17:23.236Z,109.32
2022-08-20T04:17:55.174Z,68.97
2022-08-20T04:18:28.189Z,63.65
2022-08-20T04:19:02.224Z,63.50
2022-08-20T04:19:35.572Z,91.35
2022-08-20T04:20:10.325Z,83.13
2022-08-20T04:20:43.583Z,58.03
2022-08-20T04:21:16.427Z,51.20
2022-08-20T04:21:49.247Z,57.78
2022-08-20T04:22:21.103Z,59.03
2022-08-20T04:22:59.134Z,58.58
2022-08-20T04:23:32.993Z,58.55
2022-08-20T04:24:06.323Z,60.80
2022-08-20T04:24:38.198Z,41.80
2022-08-20T04:25:10.395Z,53.38
2022-08-20T04:25:48.870Z,43.25
2022-08-20T04:26:21.529Z,39.75
2022-08-20T04:26:54.783Z,36.70
2022-08-20T04:27:27.650Z,41.97
2022-08-20T04:28:00.694Z,44.40
2022-08-20T04:28:33.701Z,43.50
2022-08-20T04:29:07.864Z,50.75
2022-08-20T04:29:42.915Z,52.40
2022-08-20T04:30:15.149Z,52.47
2022-08-20T04:30:51.745Z,57.45
2022-08-20T04:31:25.440Z,60.15
2022-08-20T04:31:57.447Z,56.85
2022-08-20T04:32:30.357Z,41.40
2022-08-20T04:33:02.339Z,48.35
2022-08-20T04:33:35.520Z,41.88
2022-08-20T04:34:07.880Z,44.50
2022-08-20T04:34:40.546Z,63.03
2022-08-20T04:35:15.777Z,50.15
2022-08-20T04:35:49.242Z,51.88
2022-08-20T04:36:21.192Z,52.90
2022-08-20T04:36:53.061Z,48.40
2022-08-20T04:37:24.919Z,61.03
2022-08-20T04:38:02.825Z,55.55
2022-08-20T04:38:47.866Z,48.30
2022-08-20T04:39:22.072Z,51.78
2022-08-20T04:40:12.406Z,49.58
2022-08-20T04:41:00.989Z,48.05
2022-08-20T04:41:32.846Z,49.30
2022-08-20T04:42:05.039Z,47.22
2022-08-20T04:42:38.212Z,59.60
2022-08-20T04:43:12.380Z,60.70
2022-08-20T04:43:44.309Z,59.60
2022-08-20T04:44:19.121Z,72.57
2022-08-20T04:44:50.965Z,72.40
2022-08-20T04:45:22.858Z,63.65
2022-08-20T04:45:57.432Z,75.57
2022-08-20T04:46:31.657Z,114.10
2022-08-20T04:47:03.509Z,103.38
2022-08-20T04:47:35.434Z,96.95
2022-08-20T04:48:14.227Z,122.78
2022-08-20T04:48:48.980Z,125.00
2022-08-20T04:49:26.311Z,111.28
2022-08-20T04:50:00.233Z,105.18
2022-08-20T04:50:35.097Z,136.25
2022-08-20T04:51:09.679Z,140.93
2022-08-20T04:51:41.555Z,136.63
2022-08-20T04:52:13.500Z,145.82
2022-08-20T04:52:47.547Z,159.18
2022-08-20T04:53:25.665Z,172.48
2022-08-20T04:53:58.185Z,156.57
2022-08-20T04:54:31.313Z,120.88
2022-08-20T04:55:03.474Z,103.03
2022-08-20T04:55:41.878Z,119.47
2022-08-20T04:56:14.682Z,94.32
2022-08-20T04:56:48.127Z,105.20
2022-08-20T04:57:19.970Z,130.93
2022-08-20T04:57:54.382Z,123.32
2022-08-20T04:58:30.267Z,105.70
2022-08-20T04:59:02.211Z,84.47
2022-08-20T04:59:36.380Z,109.93
2022-08-20T05:00:11.438Z,119.88
2022-08-20T05:00:47.849Z,127.15
2022-08-20T05:01:20.353Z,74.20
2022-08-20T05:01:52.286Z,78.40
2022-08-20T05:02:25.225Z,90.43
2022-08-20T05:02:57.101Z,96.28
2022-08-20T05:03:29.608Z,88.13
2022-08-20T05:04:02.762Z,120.30
2022-08-20T05:04:34.609Z,96.95
2022-08-20T05:05:08.727Z,69.97
2022-08-20T05:05:40.610Z,64.00
2022-08-20T05:06:13.511Z,49.53
2022-08-20T05:06:45.361Z,45.25
2022-08-20T05:07:18.925Z,69.18
2022-08-20T05:07:52.246Z,96.47
2022-08-20T05:08:25.751Z,93.63
2022-08-20T05:09:00.377Z,62.95
2022-08-20T05:09:32.819Z,54.33
2022-08-20T05:10:18.002Z,51.53
2022-08-20T05:10:58.067Z,74.15
2022-08-20T05:11:39.089Z,197.85
2022-08-20T05:12:12.189Z,216.38
2022-08-20T05:12:56.797Z,328.15
2022-08-20T05:13:29.302Z,445.20
2022-08-20T05:14:01.200Z,382.88
2022-08-20T05:14:34.058Z,331.27
2022-08-20T05:15:08.074Z,465.90
2022-08-20T05:15:40.521Z,561.17
2022-08-20T05:16:13.623Z,491.58
2022-08-20T05:16:45.526Z,410.88
2022-08-20T05:17:23.785Z,430.65
2022-08-20T05:18:00.351Z,582.70
2022-08-20T05:18:33.325Z,642.38
2022-08-20T05:19:06.907Z,660.53
2022-08-20T05:19:40.332Z,549.53
2022-08-20T05:20:16.453Z,402.48
2022-08-20T05:20:50.217Z,434.25
2022-08-20T05:21:22.309Z,491.38
2022-08-20T05:21:54.177Z,416.42
2022-08-20T05:22:27.259Z,400.33
2022-08-20T05:23:03.337Z,601.03
2022-08-20T05:23:38.885Z,614.65
2022-08-20T05:24:11.674Z,624.65
2022-08-20T05:24:43.525Z,620.95
2022-08-20T05:25:16.354Z,597.90
2022-08-20T05:25:51.437Z,583.00
2022-08-20T05:26:27.057Z,568.90
2022-08-20T05:27:00.423Z,566.75
2022-08-20T05:27:32.446Z,543.70
2022-08-20T05:28:09.276Z,463.50
2022-08-20T05:28:57.884Z,444.05
2022-08-20T05:29:31.701Z,510.25
2022-08-20T05:30:07.087Z,580.40
2022-08-20T05:30:45.523Z,411.58
2022-08-20T05:31:20.477Z,289.98
2022-08-20T05:31:52.333Z,304.23
2022-08-20T05:32:24.189Z,320.02
2022-08-20T05:32:57.003Z,255.55
2022-08-20T05:33:29.929Z,211.88
2022-08-20T05:34:02.296Z,180.77
2022-08-20T05:34:35.149Z,189.25
2022-08-20T05:35:09.628Z,160.52
2022-08-20T05:35:42.860Z,166.85
2022-08-20T05:36:15.459Z,179.27
2022-08-20T05:36:51.205Z,214.90
2022-08-20T05:37:24.440Z,178.20
2022-08-20T05:37:57.666Z,193.38
2022-08-20T05:38:30.897Z,203.88
2022-08-20T05:39:04.049Z,194.80
2022-08-20T05:39:37.597Z,197.80
2022-08-20T05:40:13.117Z,196.35
2022-08-20T05:40:47.312Z,172.02
2022-08-20T05:41:28.561Z,186.13
2022-08-20T05:42:01.828Z,198.30
2022-08-20T05:42:34.636Z,188.60
2022-08-20T05:43:06.766Z,175.35
2022-08-20T05:43:39.727Z,186.88
2022-08-20T05:44:13.934Z,173.60
2022-08-20T05:44:46.850Z,125.38
2022-08-20T05:45:19.818Z,137.38
2022-08-20T05:45:56.490Z,148.60
2022-08-20T05:46:29.257Z,131.48
2022-08-20T05:47:04.184Z,128.05
2022-08-20T05:47:42.992Z,126.57
2022-08-20T05:48:16.829Z,126.88
2022-08-20T05:48:49.685Z,137.57
2022-08-20T05:49:21.744Z,126.90
2022-08-20T05:49:53.638Z,94.80
2022-08-20T05:50:25.624Z,95.43
2022-08-20T05:50:58.509Z,243.02
2022-08-20T05:51:30.470Z,293.38
2022-08-20T05:52:02.500Z,173.27
2022-08-20T05:52:34.365Z,219.90
2022-08-20T05:53:07.894Z,234.00
2022-08-20T05:53:39.729Z,182.63
2022-08-20T05:54:12.069Z,156.77
2022-08-20T05:54:44.866Z,133.98
2022-08-20T05:55:16.737Z,119.57
2022-08-20T05:55:49.419Z,89.28
2022-08-20T05:56:26.681Z,113.30
2022-08-20T05:56:59.148Z,124.55
2022-08-20T05:57:31.100Z,101.43
2022-08-20T05:58:08.870Z,99.40
2022-08-20T05:58:40.721Z,98.82
2022-08-20T05:59:13.893Z,113.05
2022-08-20T05:59:47.007Z,93.07
2022-08-20T06:00:18.833Z,99.90
2022-08-20T06:00:53.182Z,119.68
2022-08-20T06:01:25.141Z,105.68
2022-08-20T06:01:57.993Z,93.63
2022-08-20T06:02:48.417Z,58.33
2022-08-20T06:03:39.324Z,54.20
2022-08-20T06:04:27.864Z,71.57
2022-08-20T06:04:59.769Z,63.40
2022-08-20T06:05:31.615Z,45.88
2022-08-20T06:06:05.388Z,68.75
2022-08-20T06:06:51.769Z,59.33
2022-08-20T06:07:24.692Z,58.67
2022-08-20T06:08:05.702Z,54.72
2022-08-20T06:08:41.364Z,62.38
2022-08-20T06:09:13.690Z,56.65
2022-08-20T06:09:45.549Z,43.13
2022-08-20T06:10:18.541Z,40.65
2022-08-20T06:10:50.398Z,34.88
2022-08-20T06:11:23.018Z,35.50
2022-08-20T06:11:59.239Z,36.38
2022-08-20T06:12:32.466Z,35.05
2022-08-20T06:13:04.665Z,33.00
2022-08-20T06:13:37.470Z,34.80
2022-08-20T06:14:09.406Z,46.25
2022-08-20T06:14:41.258Z,51.13
2022-08-20T06:15:14.651Z,40.03
2022-08-20T06:15:46.609Z,32.65
2022-08-20T06:16:19.823Z,31.00
2022-08-20T06:16:57.875Z,43.03
2022-08-20T06:17:34.840Z,52.50
2022-08-20T06:18:27.439Z,44.05
2022-08-20T06:19:00.043Z,41.50
2022-08-20T06:19:37.297Z,51.55
2022-08-20T06:20:10.551Z,49.92
2022-08-20T06:20:42.585Z,54.85
2022-08-20T06:21:15.553Z,61.92
2022-08-20T06:21:47.395Z,58.83
2022-08-20T06:22:24.322Z,61.00
2022-08-20T06:22:57.964Z,66.65
2022-08-20T06:23:46.295Z,68.28
2022-08-20T06:24:22.674Z,55.67
2022-08-20T06:24:55.061Z,54.15
2022-08-20T06:25:26.914Z,58.50
2022-08-20T06:25:59.811Z,56.03
2022-08-20T06:26:34.377Z,44.33
2022-08-20T06:27:06.556Z,45.70
2022-08-20T06:27:40.340Z,41.17
2022-08-20T06:28:13.976Z,24.15
2022-08-20T06:28:46.026Z,26.30
2022-08-20T06:29:19.277Z,28.08
2022-08-20T06:29:51.641Z,32.92
2022-08-20T06:30:23.821Z,31.83
2022-08-20T06:30:56.619Z,28.85
2022-08-20T06:31:29.996Z,32.83
2022-08-20T06:32:01.896Z,38.88
2022-08-20T06:32:34.781Z,42.42
2022-08-20T06:33:06.649Z,41.83
2022-08-20T06:33:38.499Z,39.97
2022-08-20T06:34:11.312Z,40.75
2022-08-20T06:34:50.269Z,35.45
2022-08-20T06:35:23.503Z,36.95
2022-08-20T06:35:56.479Z,38.17
2022-08-20T06:36:28.368Z,43.83
2022-08-20T06:37:00.661Z,53.38
2022-08-20T06:37:36.492Z,47.97
2022-08-20T06:38:10.053Z,46.10
2022-08-20T06:38:42.164Z,46.85
2022-08-20T06:39:15.920Z,34.35
2022-08-20T06:39:47.797Z,30.23
2022-08-20T06:40:22.977Z,31.17
2022-08-20T06:40:55.766Z,23.02
2022-08-20T06:41:35.754Z,20.52
2022-08-20T06:42:08.413Z,22.25
2022-08-20T06:42:48.045Z,22.50
2022-08-20T06:43:20.515Z,20.92
2022-08-20T06:43:53.845Z,21.17
2022-08-20T06:44:28.345Z,20.35
2022-08-20T06:45:00.407Z,20.63
2022-08-20T06:45:34.218Z,21.20
2022-08-20T06:46:06.818Z,20.70
2022-08-20T06:46:40.070Z,21.77
2022-08-20T06:47:15.033Z,19.88
2022-08-20T06:47:47.962Z,19.52
2022-08-20T06:48:19.787Z,19.38
2022-08-20T06:48:52.718Z,18.75
2022-08-20T06:49:24.556Z,18.92
2022-08-20T06:49:58.183Z,21.85
2022-08-20T06:50:32.899Z,19.50
2022-08-20T06:51:06.351Z,17.85
2022-08-20T06:51:38.384Z,19.80
2022-08-20T06:52:13.191Z,17.98
2022-08-20T06:52:53.105Z,17.42
2022-08-20T06:53:26.164Z,17.85
2022-08-20T06:53:58.378Z,17.05
2022-08-20T06:54:30.284Z,18.85
2022-08-20T06:55:03.117Z,19.90
2022-08-20T06:55:36.534Z,18.27
2022-08-20T06:56:08.553Z,18.23
2022-08-20T06:56:41.528Z,17.98
2022-08-20T06:57:13.646Z,17.05
2022-08-20T06:57:48.205Z,16.33
2022-08-20T06:58:37.832Z,19.67
2022-08-20T06:59:10.589Z,18.25
2022-08-20T06:59:43.585Z,19.52
2022-08-20T07:00:20.861Z,17.23
2022-08-20T07:00:52.751Z,17.67
2022-08-20T07:01:25.655Z,17.30
2022-08-20T07:01:58.922Z,17.17
2022-08-20T07:02:30.743Z,18.02
2022-08-20T07:03:04.836Z,17.60
2022-08-20T07:03:37.944Z,16.73
2022-08-20T07:04:09.783Z,15.90
2022-08-20T07:04:42.714Z,15.60
2022-08-20T07:05:16.038Z,16.45
2022-08-20T07:05:48.848Z,17.85
2022-08-20T07:06:20.729Z,16.95
2022-08-20T07:06:53.121Z,16.63
2022-08-20T07:07:38.530Z,17.48
2022-08-20T07:08:11.790Z,16.67
2022-08-20T07:08:44.203Z,17.48
2022-08-20T07:09:17.010Z,16.42
2022-08-20T07:09:48.885Z,17.25
2022-08-20T07:10:21.987Z,17.60
2022-08-20T07:10:54.951Z,17.02
2022-08-20T07:11:28.485Z,16.25
2022-08-20T07:12:01.073Z,17.42
2022-08-20T07:12:36.410Z,17.20
2022-08-20T07:13:08.658Z,15.13
2022-08-20T07:13:41.415Z,15.48
2022-08-20T07:14:14.233Z,15.63
2022-08-20T07:14:46.070Z,16.48
2022-08-20T07:15:21.334Z,15.73
2022-08-20T07:15:54.075Z,17.92
2022-08-20T07:16:27.460Z,16.23
2022-08-20T07:17:02.445Z,16.15
2022-08-20T07:17:35.929Z,16.52
2022-08-20T07:18:09.718Z,15.50
2022-08-20T07:18:41.866Z,15.32
2022-08-20T07:19:15.362Z,17.55
2022-08-20T07:19:47.330Z,16.40
2022-08-20T07:20:20.977Z,17.70
2022-08-20T07:20:56.242Z,15.93
2022-08-20T07:21:28.120Z,15.65
2022-08-20T07:21:59.973Z,17.80
2022-08-20T07:22:35.404Z,16.88
2022-08-20T07:23:09.200Z,17.05